Time;durP1;ratioP1;P1;durP2;ratioP2;P2;SDS_P1;SDS_P2;PMS_P1;PMS_P2;Temp;Humidity;BMP_temperature;BMP_pressure;BME280_temperature;BME280_humidity;BME280_pressure;Samples;Min_cycle;Max_cycle;Signal;HPM_P1;HPM_P2
2021/07/12 00:00:18;;;;;;;4.63;2.17;;;;;;;21.83;58.62;100573.06;4825798;29;20058;-64
2021/07/12 00:02:46;;;;;;;7.03;2.40;;;;;;;21.92;58.71;100573.53;4825303;29;20062;-64
2021/07/12 00:05:14;;;;;;;7.97;2.70;;;;;;;22.01;58.16;100569.16;4825908;29;20058;-66
2021/07/12 00:07:41;;;;;;;5.10;2.50;;;;;;;21.92;58.41;100560.31;4826219;29;20050;-63
2021/07/12 00:10:10;;;;;;;4.30;2.60;;;;;;;21.61;59.81;100563.72;4825497;29;20102;-64
2021/07/12 00:12:39;;;;;;;6.50;2.72;;;;;;;21.57;60.32;100560.06;4826175;29;20062;-65
2021/07/12 00:15:07;;;;;;;6.78;2.53;;;;;;;21.70;60.28;100552.16;4832736;29;20054;-64
2021/07/12 00:17:35;;;;;;;6.15;3.08;;;;;;;21.50;60.34;100546.03;4825865;29;20074;-65
2021/07/12 00:20:05;;;;;;;5.32;2.95;;;;;;;21.39;60.67;100525.56;4809239;29;20066;-65
2021/07/12 00:22:33;;;;;;;5.47;2.60;;;;;;;21.20;61.46;100526.59;4826354;29;20137;-64
2021/07/12 00:25:01;;;;;;;7.88;2.45;;;;;;;21.51;60.76;100527.22;4809796;29;20085;-63
2021/07/12 00:27:28;;;;;;;8.57;2.60;;;;;;;21.53;60.34;100520.00;4826435;29;20054;-64
2021/07/12 00:29:57;;;;;;;6.38;2.55;;;;;;;21.45;60.53;100521.16;4825944;29;20810;-63
2021/07/12 00:32:24;;;;;;;5.20;2.42;;;;;;;21.31;61.01;100515.47;4824803;29;20054;-65
2021/07/12 00:34:51;;;;;;;8.57;2.40;;;;;;;21.01;62.19;100521.25;4826199;29;20069;-63
2021/07/12 00:37:19;;;;;;;5.45;2.38;;;;;;;21.10;62.17;100538.53;4825836;29;20057;-63
2021/07/12 00:39:46;;;;;;;4.75;2.50;;;;;;;21.04;63.33;100556.88;4824333;29;20059;-65
2021/07/12 00:42:14;;;;;;;4.25;2.60;;;;;;;21.06;63.01;100567.72;4826760;29;20523;-65
2021/07/12 00:44:43;;;;;;;7.63;2.95;;;;;;;21.10;63.09;100560.13;4825773;29;20575;-63
2021/07/12 00:47:10;;;;;;;5.72;3.20;;;;;;;20.99;63.22;100576.84;4825299;29;20546;-64
2021/07/12 00:49:38;;;;;;;8.60;3.30;;;;;;;21.17;63.42;100583.41;4825311;29;20054;-64
2021/07/12 00:52:06;;;;;;;9.30;3.88;;;;;;;21.10;63.13;100582.53;4809670;29;20050;-63
2021/07/12 00:54:35;;;;;;;9.18;3.42;;;;;;;20.95;63.42;100578.00;4826583;29;20050;-63
2021/07/12 00:57:04;;;;;;;10.05;3.22;;;;;;;20.80;64.63;100579.84;4825143;29;20070;-62
2021/07/12 00:59:33;;;;;;;5.53;3.45;;;;;;;20.85;64.49;100573.88;4808939;29;20059;-63
2021/07/12 01:02:03;;;;;;;6.22;3.13;;;;;;;20.70;64.21;100568.53;4825410;29;20456;-63
2021/07/12 01:04:32;;;;;;;;;;;;;;;20.48;64.98;100558.31;4825798;29;20089;-63
2021/07/12 01:07:02;;;;;;;5.18;3.08;;;;;;;20.49;64.94;100554.31;4826329;29;19931;-65
2021/07/12 01:09:30;;;;;;;6.40;3.67;;;;;;;20.63;64.84;100557.28;4810024;29;20077;-64
2021/07/12 01:12:04;;;;;;;5.68;3.35;;;;;;;20.74;64.38;100547.00;4825594;29;20380;-64
2021/07/12 01:14:32;;;;;;;5.22;3.33;;;;;;;20.55;65.13;100536.81;4824832;29;20495;-63
2021/07/12 01:18:03;;;;;;;7.82;3.53;;;;;;;20.45;65.51;100531.13;4825286;29;20078;-64
2021/07/12 01:20:44;;;;;;;5.03;3.20;;;;;;;20.49;65.31;100524.38;4827846;29;20062;-64
2021/07/12 01:23:46;;;;;;;9.00;3.50;;;;;;;20.71;64.40;100508.59;4828221;29;20066;-65
2021/07/12 01:26:45;;;;;;;7.32;2.97;;;;;;;20.59;64.67;100508.88;4826979;29;20050;-64
2021/07/12 01:29:22;;;;;;;7.03;3.10;;;;;;;20.53;64.72;100507.59;4809537;29;20051;-64
2021/07/12 01:32:01;;;;;;;5.65;2.88;;;;;;;20.47;65.42;100497.97;4824830;29;20062;-63
2021/07/12 01:34:55;;;;;;;4.93;2.70;;;;;;;20.40;65.13;100487.50;4826169;29;20388;-63
2021/07/12 01:37:49;;;;;;;4.75;2.35;;;;;;;20.43;65.15;100481.16;4825102;29;20058;-63
2021/07/12 01:40:28;;;;;;;5.20;2.40;;;;;;;20.91;64.35;100476.34;4818923;29;20070;-64
2021/07/12 01:43:09;;;;;;;8.37;2.53;;;;;;;20.70;64.29;100473.38;4810346;29;20062;-63
2021/07/12 01:45:59;;;;;;;7.22;2.20;;;;;;;20.54;64.79;100470.84;4825402;29;20054;-65
2021/07/12 01:48:44;;;;;;;3.58;2.30;;;;;;;20.65;64.32;100466.16;4824759;29;20058;-65
2021/07/12 01:51:16;;;;;;;6.60;2.10;;;;;;;20.82;63.60;100464.66;4810206;29;20066;-64
2021/07/12 01:53:47;;;;;;;3.08;2.03;;;;;;;20.84;63.08;100459.50;4825831;29;20061;-63
2021/07/12 01:56:39;;;;;;;6.22;1.98;;;;;;;20.75;63.62;100465.41;4824620;29;20503;-64
2021/07/12 01:59:14;;;;;;;5.22;2.08;;;;;;;20.67;63.58;100472.16;4809190;29;20396;-64
2021/07/12 02:01:46;;;;;;;5.78;2.38;;;;;;;20.48;64.22;100474.38;4809906;29;20065;-63
2021/07/12 02:04:16;;;;;;;7.32;2.10;;;;;;;20.42;65.17;100485.13;4824314;29;20065;-64
2021/07/12 02:06:44;;;;;;;5.63;2.33;;;;;;;20.60;65.13;100485.28;4824346;29;20054;-64
2021/07/12 02:09:15;;;;;;;8.60;2.70;;;;;;;20.59;65.02;100484.47;4824517;29;20389;-63
2021/07/12 02:11:47;;;;;;;4.60;2.60;;;;;;;20.62;65.53;100492.13;4824660;29;20058;-63
2021/07/12 02:14:17;;;;;;;;;;;;;;;20.68;65.71;100492.53;4809777;29;20061;-62
2021/07/12 02:16:48;;;;;;;4.68;2.83;;;;;;;20.64;65.84;100500.13;4824204;29;19931;-63
2021/07/12 02:19:15;;;;;;;7.35;2.97;;;;;;;20.80;65.86;100492.28;4825353;29;20069;-64
2021/07/12 02:21:57;;;;;;;7.95;3.22;;;;;;;20.74;65.12;100503.03;4825542;29;20078;-63
2021/07/12 02:24:47;;;;;;;14.32;3.40;;;;;;;20.91;64.91;100491.16;4822948;29;20446;-63
2021/07/12 02:27:20;;;;;;;8.10;3.85;;;;;;;20.69;65.17;100496.97;4809394;29;20062;-64
2021/07/12 02:29:48;;;;;;;5.57;3.40;;;;;;;20.70;65.70;100495.75;4825151;29;20050;-63
2021/07/12 02:32:18;;;;;;;5.13;3.03;;;;;;;20.94;65.07;100495.16;4808327;29;20518;-63
2021/07/12 02:34:48;;;;;;;6.68;3.10;;;;;;;20.75;65.48;100487.00;4808906;29;20073;-63
2021/07/12 02:37:16;;;;;;;5.95;3.20;;;;;;;20.51;66.28;100482.00;4809003;29;20054;-63
2021/07/12 02:39:46;;;;;;;5.68;3.30;;;;;;;20.45;67.03;100480.75;4808653;29;20050;-63
2021/07/12 02:42:15;;;;;;;6.40;3.15;;;;;;;20.54;68.50;100495.25;4808872;29;20065;-64
2021/07/12 02:44:50;;;;;;;7.88;3.08;;;;;;;20.45;67.42;100480.75;4825092;29;20065;-64
2021/07/12 02:47:18;;;;;;;6.32;3.55;;;;;;;20.37;68.37;100479.88;4823992;29;20062;-65
2021/07/12 02:49:47;;;;;;;7.45;3.40;;;;;;;20.24;68.29;100472.16;4809220;29;20511;-64
2021/07/12 02:52:21;;;;;;;6.17;3.33;;;;;;;20.18;69.47;100468.91;4823572;29;20058;-64
2021/07/12 02:54:50;;;;;;;5.80;3.40;;;;;;;20.23;69.49;100459.34;4823722;29;20054;-63
2021/07/12 02:57:17;;;;;;;5.88;3.50;;;;;;;20.22;69.67;100463.34;4808960;29;20392;-62
2021/07/12 02:59:45;;;;;;;8.35;3.85;;;;;;;20.21;70.44;100459.72;4825183;29;20084;-64
2021/07/12 03:02:12;;;;;;;7.90;3.55;;;;;;;20.21;70.11;100444.97;4824673;29;20058;-64
2021/07/12 03:04:40;;;;;;;6.07;3.30;;;;;;;20.07;70.56;100432.41;4825395;29;20062;-64
2021/07/12 03:07:14;;;;;;;7.88;3.13;;;;;;;20.21;70.14;100420.56;4823833;29;20081;-63
2021/07/12 03:09:43;;;;;;;4.63;2.95;;;;;;;20.31;68.86;100417.06;4808335;29;20050;-63
2021/07/12 03:12:16;;;;;;;5.70;2.90;;;;;;;20.00;69.62;100420.31;4823198;29;20054;-64
2021/07/12 03:14:59;;;;;;;5.47;2.80;;;;;;;20.17;68.42;100411.38;4808601;29;20054;-64
2021/07/12 03:17:28;;;;;;;5.97;2.58;;;;;;;20.39;67.19;100410.34;4809984;29;20446;-63
2021/07/12 03:19:58;;;;;;;6.70;2.90;;;;;;;20.05;67.97;100418.00;4825514;29;20419;-63
2021/07/12 03:22:28;;;;;;;4.82;2.80;;;;;;;20.19;67.81;100408.97;4822997;29;20062;-63
2021/07/12 03:24:58;;;;;;;6.85;2.60;;;;;;;20.17;66.99;100414.16;4793516;29;20065;-64
2021/07/12 03:27:26;;;;;;;5.88;2.67;;;;;;;20.12;67.50;100406.06;4808515;29;20058;-63
2021/07/12 03:29:54;;;;;;;7.38;2.35;;;;;;;20.26;67.09;100400.63;4823076;29;20055;-65
2021/07/12 03:32:27;;;;;;;4.85;2.38;;;;;;;20.39;66.14;100389.97;4807832;29;20058;-63
2021/07/12 03:35:00;;;;;;;4.95;2.50;;;;;;;20.55;66.10;100382.09;4823345;29;20062;-64
2021/07/12 03:37:27;;;;;;;4.00;2.40;;;;;;;20.45;66.66;100389.19;4824391;29;20058;-64
2021/07/12 03:39:56;;;;;;;8.13;2.50;;;;;;;20.41;66.87;100382.81;4792706;29;20054;-64
2021/07/12 03:42:25;;;;;;;8.02;2.78;;;;;;;20.25;68.34;100395.44;4822845;29;20070;-63
2021/07/12 03:44:54;;;;;;;5.55;2.60;;;;;;;19.98;68.93;100395.56;4824518;29;20139;-63
2021/07/12 03:47:31;;;;;;;5.20;2.50;;;;;;;19.99;69.16;100397.19;4808095;29;20066;-63
2021/07/12 03:50:10;;;;;;;4.50;2.22;;;;;;;19.75;70.33;100405.28;4824091;29;20067;-63
2021/07/12 03:52:42;;;;;;;5.88;2.63;;;;;;;19.77;70.32;100408.50;4822704;29;20058;-64
2021/07/12 03:55:11;;;;;;;8.10;2.70;;;;;;;19.86;70.12;100411.78;4824186;29;20062;-64
2021/07/12 03:57:40;;;;;;;4.93;2.40;;;;;;;19.96;69.89;100411.13;4824405;29;20055;-64
2021/07/12 04:00:12;;;;;;;5.75;2.50;;;;;;;20.03;69.13;100389.59;4823288;29;20439;-65
2021/07/12 04:02:40;;;;;;;3.53;2.03;;;;;;;20.25;68.04;100381.44;4824241;29;20062;-63
2021/07/12 04:05:08;;;;;;;6.28;2.72;;;;;;;20.23;68.04;100387.44;4824278;29;20050;-63
2021/07/12 04:07:36;;;;;;;7.93;2.30;;;;;;;19.77;69.06;100386.94;4824368;29;20058;-64
2021/07/12 04:10:05;;;;;;;5.05;2.25;;;;;;;19.84;69.13;100377.84;4824008;29;20054;-64
2021/07/12 04:12:32;;;;;;;6.30;2.70;;;;;;;19.95;68.68;100379.56;4824400;29;20057;-63
2021/07/12 04:15:00;;;;;;;4.20;2.15;;;;;;;20.04;68.40;100390.41;4824592;29;20168;-63
2021/07/12 04:17:28;;;;;;;4.63;2.22;;;;;;;19.90;68.55;100404.25;4824479;29;20055;-64
2021/07/12 04:19:56;;;;;;;3.95;2.15;;;;;;;19.77;69.26;100408.50;4824284;29;20055;-64
2021/07/12 04:22:24;;;;;;;4.68;2.25;;;;;;;19.89;69.63;100417.41;4837878;29;20435;-63
2021/07/12 04:24:52;;;;;;;6.22;2.28;;;;;;;19.99;68.71;100405.56;4823790;29;20065;-64
2021/07/12 04:27:19;;;;;;;3.83;2.25;;;;;;;19.87;68.78;100411.44;4822598;29;20061;-63
2021/07/12 04:29:46;;;;;;;5.07;2.30;;;;;;;20.07;68.71;100409.22;4823969;29;20050;-63
2021/07/12 04:32:14;;;;;;;4.88;2.40;;;;;;;20.17;68.19;100400.97;4824156;29;20058;-64
2021/07/12 04:34:41;;;;;;;4.68;2.10;;;;;;;20.05;68.31;100403.19;4827155;29;20050;-63
2021/07/12 04:37:08;;;;;;;4.55;2.25;;;;;;;20.01;67.90;100405.97;4826944;29;20058;-63
2021/07/12 04:39:36;;;;;;;6.18;2.40;;;;;;;19.99;67.98;100402.75;4826966;29;20553;-64
2021/07/12 04:42:03;;;;;;;5.20;2.35;;;;;;;20.07;67.52;100401.63;4825316;29;20565;-63
2021/07/12 04:44:37;;;;;;;6.20;2.40;;;;;;;20.12;67.42;100411.66;4825716;29;20058;-64
2021/07/12 04:47:04;;;;;;;6.43;2.10;;;;;;;20.17;67.26;100410.56;4825450;29;20134;-65
2021/07/12 04:49:31;;;;;;;5.50;2.50;;;;;;;20.17;66.79;100420.53;4826682;29;20062;-64
2021/07/12 04:52:01;;;;;;;6.00;2.42;;;;;;;20.11;67.33;100413.66;4826865;29;20062;-61
2021/07/12 04:54:28;;;;;;;5.53;2.40;;;;;;;19.91;67.48;100403.88;4826519;29;20081;-61
2021/07/12 04:56:55;;;;;;;4.55;2.28;;;;;;;20.11;66.92;100404.47;4826727;29;20046;-61
2021/07/12 04:59:27;;;;;;;5.25;2.38;;;;;;;20.08;67.12;100406.03;4826907;29;20495;-62
2021/07/12 05:01:55;;;;;;;4.43;2.33;;;;;;;20.28;66.66;100400.25;4826265;29;20054;-62
2021/07/12 05:04:23;;;;;;;3.50;2.17;;;;;;;20.25;66.27;100385.06;4826600;29;20050;-62
2021/07/12 05:06:50;;;;;;;6.38;2.20;;;;;;;20.17;66.16;100389.78;4826520;29;20537;-62
2021/07/12 05:09:17;;;;;;;6.13;2.58;;;;;;;20.41;66.02;100379.19;4826495;29;20749;-62
2021/07/12 05:11:45;;;;;;;8.85;2.42;;;;;;;20.51;65.50;100376.47;4827839;29;20475;-60
2021/07/12 05:14:12;;;;;;;4.00;2.30;;;;;;;20.32;66.35;100387.09;4828750;29;20065;-61
2021/07/12 05:16:40;;;;;;;6.03;2.08;;;;;;;20.02;67.24;100379.63;4827190;29;20058;-61
2021/07/12 05:19:08;;;;;;;4.25;2.15;;;;;;;20.04;67.24;100368.03;4825844;29;20062;-61
2021/07/12 05:21:35;;;;;;;5.70;2.80;;;;;;;20.13;67.73;100372.16;4826671;29;20489;-61
2021/07/12 05:24:03;;;;;;;4.90;2.70;;;;;;;20.17;66.90;100377.81;4826386;29;20054;-60
2021/07/12 05:26:30;;;;;;;6.75;2.30;;;;;;;20.04;67.54;100368.03;4826493;29;20522;-61
2021/07/12 05:28:57;;;;;;;7.80;2.60;;;;;;;20.15;68.05;100368.97;4826492;29;20058;-63
2021/07/12 05:31:24;;;;;;;8.00;2.35;;;;;;;19.94;68.45;100371.56;4825494;29;20051;-60
2021/07/12 05:33:52;;;;;;;4.25;2.38;;;;;;;19.93;68.51;100372.72;4826386;29;20057;-61
2021/07/12 05:36:20;;;;;;;7.60;2.72;;;;;;;19.79;69.32;100373.38;4826712;29;20054;-61
2021/07/12 05:38:47;;;;;;;5.63;2.60;;;;;;;19.90;69.30;100371.53;4826129;29;20057;-61
2021/07/12 05:41:14;;;;;;;8.55;2.55;;;;;;;20.14;68.25;100373.75;4824600;29;20062;-61
2021/07/12 05:43:41;;;;;;;6.10;2.35;;;;;;;19.90;68.89;100376.28;4825285;29;20435;-61
2021/07/12 05:46:09;;;;;;;11.43;2.72;;;;;;;20.01;69.12;100375.19;4825966;29;20050;-61
2021/07/12 05:48:36;;;;;;;7.72;2.60;;;;;;;19.93;69.69;100372.72;4825611;29;20058;-61
2021/07/12 05:51:03;;;;;;;5.72;2.50;;;;;;;19.62;70.29;100376.00;4825843;29;20066;-60
2021/07/12 05:53:30;;;;;;;7.80;2.65;;;;;;;19.64;70.62;100374.44;4825808;29;20517;-60
2021/07/12 05:55:57;;;;;;;6.88;2.60;;;;;;;19.65;70.82;100369.66;4825823;29;20176;-61
2021/07/12 05:58:25;;;;;;;7.88;2.53;;;;;;;19.49;71.96;100369.84;4825748;29;20081;-62
2021/07/12 06:00:52;;;;;;;13.25;2.80;;;;;;;19.53;71.47;100370.72;4825799;29;20046;-60
2021/07/12 06:03:20;;;;;;;6.72;2.55;;;;;;;19.62;71.13;100357.25;4839394;29;20065;-60
2021/07/12 06:05:47;;;;;;;8.02;2.30;;;;;;;19.22;73.36;100356.31;4825860;29;20058;-62
2021/07/12 06:08:14;;;;;;;7.97;2.72;;;;;;;19.49;73.01;100358.69;4825722;29;20050;-61
2021/07/12 06:10:41;;;;;;;9.60;2.63;;;;;;;19.57;72.86;100360.38;4825189;29;20565;-61
2021/07/12 06:13:09;;;;;;;12.70;3.72;;;;;;;19.44;73.85;100352.66;4817852;29;20062;-62
2021/07/12 06:15:36;;;;;;;6.03;2.92;;;;;;;19.62;72.57;100359.22;4807469;29;20059;-62
2021/07/12 06:18:03;;;;;;;5.68;3.17;;;;;;;19.43;73.80;100353.81;4817691;29;20078;-62
2021/07/12 06:20:31;;;;;;;7.15;2.92;;;;;;;19.42;74.06;100357.81;4825705;29;20054;-61
2021/07/12 06:23:00;;;;;;;6.43;3.05;;;;;;;19.37;75.63;100356.16;4825394;29;20454;-60
2021/07/12 06:25:27;;;;;;;12.73;3.35;;;;;;;19.44;75.13;100361.81;4825285;29;20050;-62
2021/07/12 06:27:54;;;;;;;9.85;4.07;;;;;;;19.04;77.33;100362.50;4825368;29;20063;-61
2021/07/12 06:30:21;;;;;;;10.38;3.55;;;;;;;18.96;77.83;100351.59;4817014;29;20553;-61
2021/07/12 06:32:49;;;;;;;7.70;3.28;;;;;;;19.20;77.09;100348.31;4818340;29;20054;-60
2021/07/12 06:35:16;;;;;;;9.85;3.45;;;;;;;18.95;77.70;100333.25;4821658;29;20058;-61
2021/07/12 06:37:44;;;;;;;7.70;3.45;;;;;;;18.90;78.54;100339.16;4824934;29;20061;-60
2021/07/12 06:40:11;;;;;;;5.60;3.08;;;;;;;19.01;78.30;100334.53;4824207;29;20062;-60
2021/07/12 06:42:39;;;;;;;9.32;3.50;;;;;;;19.01;78.81;100326.97;4824772;29;20052;-60
2021/07/12 06:45:07;;;;;;;8.48;3.60;;;;;;;19.29;77.45;100318.13;4824351;29;20069;-60
2021/07/12 06:47:34;;;;;;;7.47;3.25;;;;;;;19.16;77.70;100313.97;4814729;29;20062;-60
2021/07/12 06:50:04;;;;;;;7.88;3.70;;;;;;;19.39;77.58;100300.72;4818859;29;20074;-60
2021/07/12 06:52:31;;;;;;;10.88;3.90;;;;;;;19.36;77.49;100315.44;4824376;29;20057;-60
2021/07/12 06:54:59;;;;;;;9.35;3.67;;;;;;;19.35;77.77;100339.00;4825270;29;20058;-60
2021/07/12 06:57:26;;;;;;;9.27;3.95;;;;;;;19.43;78.53;100346.25;4823508;29;20058;-61
2021/07/12 06:59:53;;;;;;;10.80;4.07;;;;;;;19.49;77.35;100355.88;4817436;29;20055;-61
2021/07/12 07:02:21;;;;;;;7.60;3.50;;;;;;;19.32;79.96;100362.06;4812912;29;20061;-61
2021/07/12 07:04:57;;;;;;;9.70;4.47;;;;;;;19.64;79.14;100357.66;4822447;29;20534;-62
2021/07/12 07:07:24;;;;;;;8.68;4.10;;;;;;;19.57;78.57;100362.38;4824207;29;20058;-61
2021/07/12 07:09:51;;;;;;;10.35;3.92;;;;;;;19.87;78.57;100360.31;4825466;29;20065;-60
2021/07/12 07:12:19;;;;;;;21.13;4.38;;;;;;;20.45;79.26;100346.44;4824049;29;20055;-42
2021/07/12 07:14:47;;;;;;;16.08;3.10;;;;;;;22.47;69.03;100343.97;4822302;29;20065;-41
2021/07/12 07:17:14;;;;;;;12.60;3.30;;;;;;;23.18;64.60;100351.06;4820998;29;20061;-43
2021/07/12 07:19:42;;;;;;;17.08;3.22;;;;;;;23.49;62.36;100344.50;4823045;29;20059;-41
2021/07/12 07:22:09;;;;;;;11.35;3.25;;;;;;;23.69;61.61;100340.00;4823221;29;20057;-43
2021/07/12 07:24:48;;;;;;;10.40;3.23;;;;;;;23.81;61.28;100338.72;4822947;29;20057;-41
2021/07/12 07:27:38;;;;;;;9.82;3.00;;;;;;;23.72;60.88;100346.78;4821096;29;20074;-42
2021/07/12 07:30:07;;;;;;;8.75;3.05;;;;;;;23.67;60.80;100348.03;4822606;29;20447;-42
2021/07/12 07:32:34;;;;;;;8.05;2.88;;;;;;;23.73;60.86;100339.97;4822234;29;20081;-42
2021/07/12 07:35:03;;;;;;;8.02;2.90;;;;;;;23.76;60.87;100337.16;4821882;29;20589;-42
2021/07/12 07:37:31;;;;;;;7.90;3.05;;;;;;;23.80;60.62;100328.69;4823469;29;20050;-41
2021/07/12 07:39:58;;;;;;;9.00;3.15;;;;;;;23.83;60.67;100319.41;4820999;29;20134;-40
2021/07/12 07:42:25;;;;;;;5.95;2.63;;;;;;;23.82;60.61;100332.66;4822838;29;20050;-40
2021/07/12 07:44:57;;;;;;;6.32;2.83;;;;;;;23.85;60.65;100334.66;4821625;29;20495;-41
2021/07/12 07:47:25;;;;;;;8.52;2.80;;;;;;;23.87;60.50;100314.56;4822228;29;20077;-46
2021/07/12 07:50:06;;;;;;;8.30;2.92;;;;;;;23.89;60.27;100323.38;4821375;29;20067;-41
2021/07/12 07:52:33;;;;;;;6.68;2.50;;;;;;;23.89;60.05;100324.19;4821988;29;20050;-40
2021/07/12 07:55:02;;;;;;;8.57;3.17;;;;;;;23.94;60.19;100320.94;4820809;29;20053;-49
2021/07/12 07:57:29;;;;;;;8.65;2.80;;;;;;;23.91;60.28;100310.50;4822024;29;20050;-42
2021/07/12 07:59:57;;;;;;;8.48;3.05;;;;;;;23.92;60.16;100306.47;4821786;29;20066;-41
2021/07/12 08:02:24;;;;;;;10.90;3.25;;;;;;;23.87;59.97;100304.09;4822239;29;20046;-41
2021/07/12 08:04:51;;;;;;;8.95;3.00;;;;;;;23.86;60.49;100301.69;4821803;29;20054;-41
2021/07/12 08:07:20;;;;;;;8.68;2.75;;;;;;;23.87;59.99;100311.75;4806734;29;20062;-41
2021/07/12 08:09:47;;;;;;;7.10;2.83;;;;;;;23.86;60.44;100307.31;4822469;29;20061;-41
2021/07/12 08:12:15;;;;;;;7.10;2.70;;;;;;;23.91;60.29;100315.31;4824803;29;20054;-42
2021/07/12 08:14:42;;;;;;;8.68;2.88;;;;;;;23.95;60.31;100313.28;4823504;29;20058;-41
2021/07/12 08:17:10;;;;;;;7.25;3.10;;;;;;;23.96;59.90;100321.31;4824404;29;20066;-42
2021/07/12 08:19:37;;;;;;;8.10;2.50;;;;;;;23.97;59.81;100320.09;4809399;29;20232;-40
2021/07/12 08:22:06;;;;;;;7.00;2.70;;;;;;;23.99;59.72;100317.69;4809302;29;20054;-41
2021/07/12 08:24:34;;;;;;;4.85;2.85;;;;;;;23.99;59.98;100330.97;4808228;29;20528;-41
2021/07/12 08:27:02;;;;;;;7.50;2.90;;;;;;;23.99;59.97;100343.03;4826040;29;20062;-42
2021/07/12 08:29:30;;;;;;;6.70;2.90;;;;;;;23.98;59.92;100349.84;4824219;29;20061;-41
2021/07/12 08:31:57;;;;;;;7.13;2.97;;;;;;;23.98;60.27;100358.28;4824820;29;20050;-42
2021/07/12 08:34:25;;;;;;;8.02;3.03;;;;;;;23.96;60.11;100357.91;4825155;29;20061;-42
2021/07/12 08:36:52;;;;;;;6.72;2.95;;;;;;;23.96;60.21;100371.97;4825755;29;20062;-42
2021/07/12 08:39:20;;;;;;;9.13;3.13;;;;;;;23.94;60.30;100365.94;4823877;29;20511;-44
2021/07/12 08:41:47;;;;;;;7.07;3.10;;;;;;;23.94;60.08;100368.75;4823586;29;20058;-40
2021/07/12 08:44:28;;;;;;;7.83;3.03;;;;;;;23.95;60.12;100363.94;4825679;29;20081;-40
2021/07/12 08:46:56;;;;;;;5.50;2.92;;;;;;;23.95;60.25;100372.38;4824967;29;20299;-42
2021/07/12 08:49:24;;;;;;;6.90;2.90;;;;;;;23.98;60.06;100382.81;4825663;29;20065;-42
2021/07/12 08:51:52;;;;;;;9.68;3.03;;;;;;;24.03;59.71;100380.38;4826166;29;21124;-42
2021/07/12 08:54:19;;;;;;;7.32;2.88;;;;;;;23.96;59.86;100383.22;4824001;29;20061;-41
2021/07/12 08:56:46;;;;;;;7.05;3.30;;;;;;;23.93;60.24;100375.59;4824986;29;20049;-46
2021/07/12 08:59:36;;;;;;;12.55;3.40;;;;;;;23.98;59.79;100377.19;4822688;29;20521;-49
2021/07/12 09:02:10;;;;;;;7.35;2.83;;;;;;;23.96;59.82;100373.97;4824683;29;20458;-43
2021/07/12 09:04:44;;;;;;;6.53;3.25;;;;;;;24.00;59.67;100372.78;4824794;29;20054;-42
2021/07/12 09:07:21;;;;;;;12.98;4.40;;;;;;;24.00;59.75;100371.97;4824491;29;20065;-43
2021/07/12 09:10:09;;;;;;;7.53;3.50;;;;;;;23.97;59.84;100372.78;4825272;29;20058;-42
2021/07/12 09:12:38;;;;;;;14.35;3.17;;;;;;;23.90;59.93;100370.78;4824683;29;20058;-44
2021/07/12 09:15:11;;;;;;;16.13;3.65;;;;;;;23.99;60.33;100375.97;4823247;29;20078;-43
2021/07/12 09:17:41;;;;;;;10.85;3.13;;;;;;;24.02;59.93;100375.19;4823324;29;20498;-42
2021/07/12 09:20:11;;;;;;;10.27;3.50;;;;;;;23.93;60.44;100378.41;4822899;29;20073;-38
2021/07/12 09:22:40;;;;;;;8.90;3.65;;;;;;;23.89;60.32;100380.44;4821879;29;20689;-38
2021/07/12 09:25:10;;;;;;;8.05;3.42;;;;;;;23.61;61.87;100368.53;4823133;29;20058;-41
2021/07/12 09:27:39;;;;;;;7.63;3.17;;;;;;;23.47;62.03;100383.47;4823722;29;20068;-38
2021/07/12 09:30:08;;;;;;;9.27;3.47;;;;;;;23.38;62.62;100389.53;4824767;29;20066;-39
2021/07/12 09:32:37;;;;;;;10.85;3.50;;;;;;;23.14;64.23;100386.78;4825180;29;20459;-39
2021/07/12 09:35:13;;;;;;;7.40;3.63;;;;;;;23.13;64.30;100396.44;4823048;29;20081;-39
2021/07/12 09:37:43;;;;;;;7.15;3.25;;;;;;;23.29;63.90;100394.78;4822708;29;20105;-38
2021/07/12 09:40:13;;;;;;;6.70;3.08;;;;;;;22.75;65.52;100392.47;4823270;29;20061;-39
2021/07/12 09:42:42;;;;;;;8.52;3.17;;;;;;;22.61;66.49;100414.19;4822975;29;20085;-38
2021/07/12 09:45:11;;;;;;;4.95;2.97;;;;;;;22.70;66.36;100406.94;4823594;29;20507;-39
2021/07/12 09:47:42;;;;;;;10.65;2.97;;;;;;;22.55;67.00;100410.16;4823938;29;20069;-38
2021/07/12 09:50:12;;;;;;;8.10;3.40;;;;;;;22.76;66.03;100401.72;4824121;29;20453;-39
2021/07/12 09:52:46;;;;;;;13.43;3.88;;;;;;;22.54;68.20;100408.53;4824661;29;20050;-38
2021/07/12 09:55:23;;;;;;;6.88;3.13;;;;;;;22.33;68.42;100404.50;4823650;29;20535;-39
2021/07/12 09:58:17;;;;;;;7.97;3.25;;;;;;;22.30;68.24;100407.31;4824688;29;20081;-38
2021/07/12 10:00:47;;;;;;;10.30;3.45;;;;;;;22.55;66.86;100412.97;4817340;29;20069;-40
2021/07/12 10:03:16;;;;;;;9.93;3.20;;;;;;;22.59;66.81;100413.78;4824100;29;20054;-39
2021/07/12 10:05:47;;;;;;;6.20;3.30;;;;;;;22.71;66.19;100411.38;4823114;29;20545;-40
2021/07/12 10:08:15;;;;;;;7.07;3.00;;;;;;;22.68;66.60;100412.19;4822899;29;20054;-41
2021/07/12 10:10:43;;;;;;;10.18;3.80;;;;;;;22.45;67.18;100410.94;4824216;29;20050;-39
2021/07/12 10:13:10;;;;;;;6.35;3.40;;;;;;;22.57;66.88;100421.78;4823581;29;20157;-39
2021/07/12 10:15:38;;;;;;;15.35;3.35;;;;;;;22.72;66.10;100407.34;4823920;29;20078;-39
2021/07/12 10:18:07;;;;;;;7.53;3.13;;;;;;;22.94;65.17;100410.94;4824192;29;20058;-38
2021/07/12 10:20:36;;;;;;;7.15;3.05;;;;;;;23.09;64.76;100418.09;4819990;29;20129;-44
2021/07/12 10:23:06;;;;;;;8.27;3.60;;;;;;;23.13;65.19;100410.47;4822900;29;20077;-43
2021/07/12 10:25:35;;;;;;;6.97;3.20;;;;;;;23.20;64.70;100408.47;4821226;29;20498;-46
2021/07/12 10:28:07;;;;;;;8.70;3.20;;;;;;;23.25;64.17;100405.22;4822667;29;20054;-44
2021/07/12 10:30:36;;;;;;;6.38;3.25;;;;;;;23.36;63.46;100402.41;4823286;29;20081;-44
2021/07/12 10:33:07;;;;;;;11.20;3.00;;;;;;;23.42;63.55;100395.97;4822767;29;20061;-48
2021/07/12 10:35:37;;;;;;;;;;;;;;;23.51;63.83;100391.91;4821954;29;20051;-45
2021/07/12 10:38:05;;;;;;;6.47;3.20;;;;;;;23.56;63.26;100389.47;4823816;29;19934;-46
2021/07/12 10:40:56;;;;;;;8.23;2.88;;;;;;;23.63;63.03;100377.38;4821885;29;20063;-48
2021/07/12 10:43:32;;;;;;;8.10;2.75;;;;;;;23.67;63.24;100386.59;4822939;29;20050;-47
2021/07/12 10:46:00;;;;;;;8.60;3.28;;;;;;;23.76;63.05;100373.72;4823832;29;20066;-43
2021/07/12 10:48:36;;;;;;;6.50;3.28;;;;;;;23.82;62.94;100382.50;4823919;29;20153;-42
2021/07/12 10:51:17;;;;;;;6.43;3.17;;;;;;;23.82;62.63;100371.25;4823228;29;20046;-42
2021/07/12 10:54:10;;;;;;;6.65;3.08;;;;;;;23.86;62.37;100372.84;4822871;29;20061;-42
2021/07/12 10:56:56;;;;;;;7.20;3.28;;;;;;;23.91;62.51;100363.16;4822736;29;20054;-42
2021/07/12 10:59:32;;;;;;;8.77;3.00;;;;;;;23.99;61.76;100359.91;4823208;29;20145;-44
2021/07/12 11:02:01;;;;;;;13.70;3.20;;;;;;;23.97;62.07;100356.66;4822183;29;20058;-43
2021/07/12 11:04:30;;;;;;;12.23;3.83;;;;;;;23.96;62.82;100368.34;4821490;29;20038;-41
2021/07/12 11:06:58;;;;;;;11.40;4.30;;;;;;;23.85;64.12;100353.56;4822613;29;20066;-44
2021/07/12 11:09:47;;;;;;;7.63;3.60;;;;;;;23.89;64.05;100351.50;4823614;29;20058;-43
2021/07/12 11:12:31;;;;;;;14.40;4.03;;;;;;;23.99;63.65;100353.47;4820334;29;20463;-47
2021/07/12 11:15:21;;;;;;;7.95;3.97;;;;;;;24.01;63.32;100351.84;4820029;29;20055;-46
2021/07/12 11:18:03;;;;;;;7.60;3.67;;;;;;;24.03;63.56;100341.00;4820603;29;20069;-46
2021/07/12 11:20:53;;;;;;;7.38;3.53;;;;;;;24.04;63.27;100345.41;4819597;29;20062;-45
2021/07/12 11:23:42;;;;;;;7.95;3.53;;;;;;;24.17;63.40;100340.88;4822717;29;20050;-44
2021/07/12 11:26:26;;;;;;;15.63;4.22;;;;;;;24.36;64.63;100333.88;4822704;29;20062;-43
2021/07/12 11:29:00;;;;;;;12.13;4.40;;;;;;;24.47;65.08;100331.78;4819846;29;20050;-45
2021/07/12 11:32:02;;;;;;;11.90;3.80;;;;;;;24.48;61.92;100328.53;4820995;29;20088;-46
2021/07/12 11:34:39;;;;;;;11.98;3.80;;;;;;;24.69;63.25;100324.75;4765809;30;20044;-42
2021/07/12 11:37:17;;;;;;;11.63;4.28;;;;;;;24.75;62.29;100320.25;4814812;29;20062;-43
2021/07/12 11:39:49;;;;;;;9.38;3.90;;;;;;;24.77;60.80;100317.84;4820927;29;20054;-44
2021/07/12 11:42:39;;;;;;;11.07;3.33;;;;;;;24.74;61.48;100317.88;4823894;29;20058;-45